Terminal Aerodrome Forecast
Issued by NWS

Home | Current Version | Previous Version | Text Only | Print | Product List | Glossary On
Versions: 1 2 3 4 5 6 7 8 9 10 11 12
000
FTUS44 KLIX 011734
TAFHUM
TAF
KHUM 011734Z 0118/0218 04006KT P6SM FEW050 SCT250
      TEMPO 0209/0213 4SM BR=

USA.gov is the U.S. government's official web portal to all federal, state and local government web resources and services.